Terminal Aerodrome Forecast
Issued by NWS Kansas City/Pleasant Hill, MO

Home | Current Version | Previous Version | Text Only | Print | Product List | Glossary On
Versions: 1 2 3 4 5 6 7 8 9 10 11 12 13 14 15 16 17 18 19 20 21 22 23 24 25 26 27 28
000
FTUS43 KEAX 241100
TAFMCI
TAF
KMCI 241135Z 2412/2512 10011KT 5SM -RA BR VCTS OVC040CB
     FM241500 10015KT 6SM -DZ BR OVC021
      TEMPO 2419/2423 5SM -RA BR OVC020
     FM250000 29008KT P6SM SCT018
     FM250900 20005KT 4SM BR SCT014=

USA.gov is the U.S. government's official web portal to all federal, state and local government web resources and services.